Time;durP1;ratioP1;P1;durP2;ratioP2;P2;SDS_P1;SDS_P2;PMS_P1;PMS_P2;Temp;Humidity;BMP_temperature;BMP_pressure;BME280_temperature;BME280_humidity;BME280_pressure;Samples;Min_cycle;Max_cycle;Signal;HPM_P1;HPM_P2
2022/06/13 00:04:13;;;;;;;;;;;15.90;99.90;;;;;;10289515;28;84353;-59
2022/06/13 00:09:14;;;;;;;;;;;15.80;1.00;;;;;;10289129;28;84266;-59
2022/06/13 00:14:14;;;;;;;;;;;15.80;1.00;;;;;;10288397;28;85086;-58
2022/06/13 00:19:15;;;;;;;;;;;15.90;1.00;;;;;;10310535;22;84820;-49
2022/06/13 00:24:15;;;;;;;;;;;15.70;1.00;;;;;;10287468;28;84944;-45
2022/06/13 00:29:16;;;;;;;;;;;15.60;1.00;;;;;;10286941;28;85300;-47
2022/06/13 00:34:17;;;;;;;;;;;15.50;1.00;;;;;;10287681;28;85271;-50
2022/06/13 00:39:17;;;;;;;;;;;15.50;1.00;;;;;;10287875;28;84937;-49
2022/06/13 00:44:29;;;;;;;;;;;15.40;1.00;;;;;;10284783;28;86154;-47
2022/06/13 00:49:30;;;;;;;;;;;15.30;1.00;;;;;;10286575;28;84062;-52
2022/06/13 00:54:31;;;;;;;;;;;15.20;1.00;;;;;;10282560;28;84666;-50
2022/06/13 00:59:33;;;;;;;;;;;15.10;1.00;;;;;;10274432;28;84759;-50
2022/06/13 01:04:34;;;;;;;;;;;15.00;1.00;;;;;;10289994;28;86046;-53
2022/06/13 01:14:56;;;;;;;;;;;14.90;1.00;;;;;;10285775;28;84914;-48
2022/06/13 01:20:03;;;;;;;;;;;14.80;1.00;;;;;;10283274;28;85542;-50
2022/06/13 01:25:22;;;;;;;;;;;14.80;1.00;;;;;;10284646;28;86888;-49
2022/06/13 01:30:35;;;;;;;;;;;14.80;1.00;;;;;;10282364;28;86434;-48
2022/06/13 01:35:45;;;;;;;;;;;14.70;1.00;;;;;;10284527;28;84931;-52
2022/06/13 01:40:55;;;;;;;;;;;14.70;1.00;;;;;;10292285;28;85143;-54
2022/06/13 01:46:03;;;;;;;;;;;14.70;1.00;;;;;;10284317;28;84994;-48
2022/06/13 01:51:08;;;;;;;;;;;14.80;1.00;;;;;;10291269;28;84214;-48
2022/06/13 01:56:10;;;;;;;;;;;14.80;1.00;;;;;;10291573;28;85038;-47
2022/06/13 02:01:25;;;;;;;;;;;14.90;1.00;;;;;;10288605;28;87171;-52
2022/06/13 02:06:31;;;;;;;;;;;14.90;1.00;;;;;;10289116;28;85722;-51
2022/06/13 02:11:39;;;;;;;;;;;14.80;1.00;;;;;;10291418;28;84800;-52
2022/06/13 02:17:06;;;;;;;;;;;14.80;1.00;;;;;;10280800;28;84295;-48
2022/06/13 02:22:09;;;;;;;;;;;14.60;1.00;;;;;;10248347;28;86656;-52
2022/06/13 02:27:11;;;;;;;;;;;14.50;1.00;;;;;;10274614;28;85023;-48
2022/06/13 02:32:15;;;;;;;;;;;14.50;1.00;;;;;;10298661;28;84930;-49
2022/06/13 02:37:19;;;;;;;;;;;14.30;1.00;;;;;;10264569;28;84262;-51
2022/06/13 02:42:23;;;;;;;;;;;14.20;1.00;;;;;;10290183;28;85717;-50
2022/06/13 02:47:28;;;;;;;;;;;14.20;1.00;;;;;;10298154;28;84306;-50
2022/06/13 02:52:35;;;;;;;;;;;14.20;1.00;;;;;;10278770;28;84944;-48
2022/06/13 02:57:38;;;;;;;;;;;14.30;1.00;;;;;;10293697;28;84198;-49
2022/06/13 03:02:44;;;;;;;;;;;14.40;1.00;;;;;;10303066;28;84279;-49
2022/06/13 03:08:01;;;;;;;;;;;14.40;1.00;;;;;;10296003;28;84144;-49
2022/06/13 03:13:05;;;;;;;;;;;14.40;1.00;;;;;;10281239;28;84938;-48
2022/06/13 03:18:11;;;;;;;;;;;14.50;1.00;;;;;;10302371;28;84104;-49
2022/06/13 03:23:13;;;;;;;;;;;14.50;1.00;;;;;;10298479;28;85360;-52
2022/06/13 03:28:17;;;;;;;;;;;14.60;1.00;;;;;;10289649;28;84247;-48
2022/06/13 03:38:42;;;;;;;;;;;14.50;1.00;;;;;;10273464;28;84031;-46
2022/06/13 03:43:46;;;;;;;;;;;14.60;1.00;;;;;;10291180;28;85209;-51
2022/06/13 03:48:49;;;;;;;;;;;14.60;1.00;;;;;;10288438;28;85246;-48
2022/06/13 03:53:59;;;;;;;;;;;14.30;1.00;;;;;;10287718;28;84049;-48
2022/06/13 03:59:08;;;;;;;;;;;14.30;18.50;;;;;;10284635;28;84780;-50
2022/06/13 04:04:14;;;;;;;;;;;14.30;28.80;;;;;;10286897;28;84975;-52
2022/06/13 04:09:18;;;;;;;;;;;14.20;24.80;;;;;;10287102;28;85126;-49
2022/06/13 04:14:37;;;;;;;;;;;14.00;99.90;;;;;;10285026;28;84680;-49
2022/06/13 04:19:42;;;;;;;;;;;13.90;99.90;;;;;;10286866;28;84325;-51
2022/06/13 04:24:58;;;;;;;;;;;14.00;99.90;;;;;;10288008;28;86213;-50
2022/06/13 04:30:01;;;;;;;;;;;14.10;99.90;;;;;;10286668;28;84450;-47
2022/06/13 04:35:02;;;;;;;;;;;14.10;1.80;;;;;;10286415;28;84890;-48
2022/06/13 04:40:05;;;;;;;;;;;14.10;1.00;;;;;;10285855;28;84812;-52
2022/06/13 04:45:15;;;;;;;;;;;14.10;1.00;;;;;;10284006;28;85716;-52
2022/06/13 04:50:17;;;;;;;;;;;14.20;1.00;;;;;;10284394;28;85306;-49
2022/06/13 04:55:21;;;;;;;;;;;14.20;1.00;;;;;;10285441;28;84996;-51
2022/06/13 05:00:22;;;;;;;;;;;14.40;2.40;;;;;;10285897;28;85004;-49
2022/06/13 05:05:27;;;;;;;;;;;14.50;1.00;;;;;;10284500;28;84999;-55
2022/06/13 05:10:31;;;;;;;;;;;14.50;1.00;;;;;;10290882;28;84354;-51
2022/06/13 05:15:32;;;;;;;;;;;14.60;27.10;;;;;;10282634;28;87185;-48
2022/06/13 05:20:36;;;;;;;;;;;14.70;1.00;;;;;;10294399;28;87433;-50
2022/06/13 05:25:41;;;;;;;;;;;14.70;1.00;;;;;;10307537;28;84356;-52
2022/06/13 05:30:42;;;;;;;;;;;14.80;1.00;;;;;;10275249;28;86022;-52
2022/06/13 05:35:43;;;;;;;;;;;14.90;1.00;;;;;;10271005;28;84300;-49
2022/06/13 05:40:44;;;;;;;;;;;15.00;1.00;;;;;;10275450;28;85371;-47
2022/06/13 05:45:45;;;;;;;;;;;15.20;1.00;;;;;;10272576;28;84924;-53
2022/06/13 05:50:46;;;;;;;;;;;15.30;1.00;;;;;;10280163;28;84218;-48
2022/06/13 05:55:47;;;;;;;;;;;15.40;1.00;;;;;;10283542;28;84432;-52
2022/06/13 06:00:49;;;;;;;;;;;15.40;1.00;;;;;;10280262;28;85713;-49
2022/06/13 06:05:50;;;;;;;;;;;15.30;1.00;;;;;;10284662;28;84765;-47
2022/06/13 06:10:52;;;;;;;;;;;15.20;1.00;;;;;;10283345;28;84101;-50
2022/06/13 06:20:55;;;;;;;;;;;15.30;1.00;;;;;;10241583;28;84939;-55
2022/06/13 06:25:56;;;;;;;;;;;15.40;1.00;;;;;;10249376;28;85082;-58
2022/06/13 06:30:57;;;;;;;;;;;15.70;1.00;;;;;;10252289;28;84150;-56
2022/06/13 06:35:58;;;;;;;;;;;15.90;1.00;;;;;;10252272;28;84076;-58
2022/06/13 06:40:59;;;;;;;;;;;16.10;1.00;;;;;;10252207;28;84254;-59
2022/06/13 06:45:59;;;;;;;;;;;16.20;1.00;;;;;;10252151;28;84953;-59
2022/06/13 06:51:00;;;;;;;;;;;16.50;1.00;;;;;;10252045;28;86038;-57
2022/06/13 07:01:20;;;;;;;;;;;16.90;1.00;;;;;;10251130;28;84791;-59
2022/06/13 07:06:20;;;;;;;;;;;17.00;1.00;;;;;;10250430;28;84321;-59
2022/06/13 07:16:42;;;;;;;;;;;17.50;1.00;;;;;;10249482;28;84787;-58
2022/06/13 07:21:43;;;;;;;;;;;17.70;1.00;;;;;;10250458;28;84911;-59
2022/06/13 07:26:44;;;;;;;;;;;17.80;1.00;;;;;;10249959;28;84979;-60
2022/06/13 07:31:58;;;;;;;;;;;18.20;1.00;;;;;;10250399;28;84879;-59
2022/06/13 07:36:59;;;;;;;;;;;18.80;1.00;;;;;;10247217;28;86847;-60
2022/06/13 07:42:01;;;;;;;;;;;18.80;99.90;;;;;;10249864;28;84252;-60
2022/06/13 07:47:02;;;;;;;;;;;18.70;1.00;;;;;;10250403;28;83999;-60
2022/06/13 07:52:02;;;;;;;;;;;18.80;1.00;;;;;;10249169;28;85025;-59
2022/06/13 07:57:03;;;;;;;;;;;19.80;99.90;;;;;;10247692;28;84420;-60
2022/06/13 08:02:04;;;;;;;;;;;20.00;59.80;;;;;;10248640;28;84182;-60
2022/06/13 08:07:04;;;;;;;;;;;19.90;1.00;;;;;;10248951;28;84119;-56
2022/06/13 08:12:06;;;;;;;;;;;19.50;1.00;;;;;;10248801;28;84860;-59
2022/06/13 08:17:06;;;;;;;;;;;19.10;99.90;;;;;;10246443;28;85117;-61
2022/06/13 08:22:07;;;;;;;;;;;18.60;1.00;;;;;;10247699;28;84095;-61
2022/06/13 08:27:08;;;;;;;;;;;19.30;1.00;;;;;;10246955;28;84790;-59
2022/06/13 08:32:09;;;;;;;;;;;20.70;99.90;;;;;;10248038;28;84923;-59
2022/06/13 08:37:09;;;;;;;;;;;21.00;1.00;;;;;;10246329;28;84903;-59
2022/06/13 08:42:14;;;;;;;;;;;21.50;99.90;;;;;;10247587;28;84896;-60
2022/06/13 08:47:24;;;;;;;;;;;21.70;99.90;;;;;;10246764;28;85139;-60
2022/06/13 08:52:24;;;;;;;;;;;20.90;1.00;;;;;;10247107;28;84069;-60
2022/06/13 08:57:26;;;;;;;;;;;21.10;1.00;;;;;;10247114;28;85270;-60
2022/06/13 09:02:31;;;;;;;;;;;22.10;99.90;;;;;;10247028;28;84899;-60
2022/06/13 09:07:36;;;;;;;;;;;21.50;1.00;;;;;;10247331;28;84731;-59
2022/06/13 09:12:36;;;;;;;;;;;20.90;1.00;;;;;;10245123;28;85000;-59
2022/06/13 09:17:41;;;;;;;;;;;20.20;1.00;;;;;;10245577;28;84278;-58
2022/06/13 09:22:44;;;;;;;;;;;19.90;1.00;;;;;;10244308;28;86013;-58
2022/06/13 09:27:54;;;;;;;;;;;19.40;99.90;;;;;;10245544;28;84896;-60
2022/06/13 09:32:55;;;;;;;;;;;19.50;99.90;;;;;;10246354;28;84212;-60
2022/06/13 09:38:00;;;;;;;;;;;21.00;99.90;;;;;;10246090;28;85398;-59
2022/06/13 09:43:08;;;;;;;;;;;22.10;1.00;;;;;;10246177;28;84398;-61
2022/06/13 09:48:08;;;;;;;;;;;22.00;1.00;;;;;;10245862;28;84042;-60
2022/06/13 09:53:29;;;;;;;;;;;22.30;99.90;;;;;;10243963;28;85216;-60
2022/06/13 09:58:43;;;;;;;;;;;22.80;1.00;;;;;;10245717;28;85458;-59
2022/06/13 10:03:49;;;;;;;;;;;23.70;1.00;;;;;;10251890;28;84199;-60
2022/06/13 10:08:50;;;;;;;;;;;24.80;97.80;;;;;;10249380;28;85564;-59
2022/06/13 10:14:09;;;;;;;;;;;24.00;1.00;;;;;;10248375;28;84066;-61
2022/06/13 10:19:13;;;;;;;;;;;22.80;25.80;;;;;;10249900;28;84896;-58
2022/06/13 10:24:19;;;;;;;;;;;23.20;99.90;;;;;;10250005;28;84089;-61
2022/06/13 10:29:25;;;;;;;;;;;23.50;1.00;;;;;;10249501;28;84902;-60
2022/06/13 10:34:41;;;;;;;;;;;22.30;26.60;;;;;;10250458;28;84439;-63
2022/06/13 10:39:42;;;;;;;;;;;21.20;1.00;;;;;;10250070;28;84986;-58
2022/06/13 10:44:42;;;;;;;;;;;20.80;1.00;;;;;;10250816;28;84897;-60
2022/06/13 10:49:45;;;;;;;;;;;21.10;1.00;;;;;;10249565;28;85080;-60
2022/06/13 10:54:48;;;;;;;;;;;21.50;1.00;;;;;;10250571;28;84259;-62
2022/06/13 11:00:07;;;;;;;;;;;23.10;1.00;;;;;;10250457;28;85081;-61
2022/06/13 11:05:16;;;;;;;;;;;24.60;99.90;;;;;;10250805;28;84136;-62
2022/06/13 11:10:37;;;;;;;;;;;24.40;1.00;;;;;;10248556;28;84093;-61
2022/06/13 11:31:52;;;;;;;;;;;24.60;1.00;;;;;;10247863;28;86067;-59
2022/06/13 11:36:58;;;;;;;;;;;23.00;1.00;;;;;;10248263;28;84930;-59
2022/06/13 11:41:59;;;;;;;;;;;21.80;1.00;;;;;;10249620;28;84587;-61
2022/06/13 11:47:01;;;;;;;;;;;20.70;99.90;;;;;;10249881;28;84044;-59
2022/06/13 11:52:06;;;;;;;;;;;20.10;1.00;;;;;;10250903;28;84816;-61
2022/06/13 11:57:12;;;;;;;;;;;21.60;1.00;;;;;;10251154;28;84126;-60
2022/06/13 12:02:17;;;;;;;;;;;23.20;1.00;;;;;;10251180;28;84422;-59
2022/06/13 12:07:26;;;;;;;;;;;24.80;1.00;;;;;;10250802;28;84733;-60
2022/06/13 12:12:41;;;;;;;;;;;24.90;1.00;;;;;;10250361;28;84107;-61
2022/06/13 12:17:52;;;;;;;;;;;23.70;1.00;;;;;;10282272;22;84936;-54
2022/06/13 12:23:08;;;;;;;;;;;23.50;1.00;;;;;;10286903;28;84760;-54
2022/06/13 12:28:14;;;;;;;;;;;23.70;1.00;;;;;;10287033;28;84744;-49
2022/06/13 12:33:34;;;;;;;;;;;23.00;1.00;;;;;;10286585;28;84116;-47
2022/06/13 12:38:45;;;;;;;;;;;23.20;1.00;;;;;;10286303;28;85026;-51
2022/06/13 12:43:48;;;;;;;;;;;23.60;1.00;;;;;;10277465;28;85816;-47
2022/06/13 12:48:58;;;;;;;;;;;24.40;1.00;;;;;;10284522;28;84415;-48
2022/06/13 12:54:09;;;;;;;;;;;23.10;1.00;;;;;;10266245;28;84881;-51
2022/06/13 12:59:26;;;;;;;;;;;22.50;1.00;;;;;;10264607;28;84947;-50
2022/06/13 13:04:45;;;;;;;;;;;23.50;1.00;;;;;;10269928;28;84598;-54
2022/06/13 13:09:56;;;;;;;;;;;24.50;1.00;;;;;;10282467;28;84851;-49
2022/06/13 13:15:01;;;;;;;;;;;25.20;99.90;;;;;;10286337;28;84097;-48
2022/06/13 13:20:21;;;;;;;;;;;26.00;99.90;;;;;;10281981;28;84871;-50
2022/06/13 13:25:25;;;;;;;;;;;26.60;99.90;;;;;;10270087;28;87096;-59
2022/06/13 13:30:33;;;;;;;;;;;26.10;99.90;;;;;;10298781;28;84436;-59
2022/06/13 13:35:34;;;;;;;;;;;25.60;99.90;;;;;;10301695;28;84113;-57
2022/06/13 13:40:44;;;;;;;;;;;24.30;99.90;;;;;;10300199;28;84256;-61
2022/06/13 13:45:48;;;;;;;;;;;24.60;99.90;;;;;;10280860;28;84272;-63
2022/06/13 13:50:53;;;;;;;;;;;25.00;99.90;;;;;;10285401;28;84227;-63
2022/06/13 13:56:14;;;;;;;;;;;24.60;99.90;;;;;;10295821;28;84972;-58
2022/06/13 14:01:24;;;;;;;;;;;24.50;99.90;;;;;;10290038;28;85115;-59
2022/06/13 14:06:28;;;;;;;;;;;23.50;99.90;;;;;;10290455;28;84278;-53
2022/06/13 14:11:29;;;;;;;;;;;23.00;99.90;;;;;;10268770;28;86306;-56
2022/06/13 14:16:56;;;;;;;;;;;23.00;99.90;;;;;;10288317;28;85831;-59
2022/06/13 14:21:58;;;;;;;;;;;23.00;99.90;;;;;;10275948;28;84995;-56
2022/06/13 14:26:59;;;;;;;;;;;22.90;99.90;;;;;;10293753;28;85591;-49
2022/06/13 14:32:12;;;;;;;;;;;22.80;99.90;;;;;;10306956;28;86083;-57
2022/06/13 14:37:12;;;;;;;;;;;22.30;64.90;;;;;;10285874;28;84147;-59
2022/06/13 14:42:22;;;;;;;;;;;21.70;71.00;;;;;;10278338;28;84739;-58
2022/06/13 14:47:33;;;;;;;;;;;21.70;95.80;;;;;;10284004;28;84801;-61
2022/06/13 14:52:34;;;;;;;;;;;21.20;99.90;;;;;;10314880;28;85519;-64
2022/06/13 14:57:35;;;;;;;;;;;21.00;99.90;;;;;;10320332;28;84222;-61
2022/06/13 15:02:54;;;;;;;;;;;21.30;99.90;;;;;;10300951;28;85768;-61
2022/06/13 15:08:01;;;;;;;;;;;21.30;99.90;;;;;;10312649;28;84323;-60
2022/06/13 15:13:03;;;;;;;;;;;21.50;99.90;;;;;;10324920;28;84903;-59
2022/06/13 15:18:06;;;;;;;;;;;21.00;99.90;;;;;;10321196;28;85226;-55
2022/06/13 15:23:14;;;;;;;;;;;20.70;99.90;;;;;;10288750;28;86525;-56
2022/06/13 15:28:16;;;;;;;;;;;21.00;99.90;;;;;;10287133;28;85133;-59
2022/06/13 15:33:19;;;;;;;;;;;20.90;99.90;;;;;;10313285;28;85159;-60
2022/06/13 15:38:22;;;;;;;;;;;20.70;99.90;;;;;;10323402;28;86563;-60
2022/06/13 15:43:27;;;;;;;;;;;20.50;99.90;;;;;;10325879;28;84780;-59
2022/06/13 15:48:28;;;;;;;;;;;20.70;99.90;;;;;;10329056;28;84963;-60
2022/06/13 15:53:29;;;;;;;;;;;20.70;99.90;;;;;;10339544;28;84185;-62
2022/06/13 15:58:29;;;;;;;;;;;20.80;99.90;;;;;;10330658;28;84725;-58
2022/06/13 16:03:31;;;;;;;;;;;20.80;99.90;;;;;;10293575;28;85404;-56
2022/06/13 16:08:33;;;;;;;;;;;20.80;99.90;;;;;;10287714;28;84809;-54
2022/06/13 16:13:42;;;;;;;;;;;20.80;99.90;;;;;;10277581;28;84368;-51
2022/06/13 16:18:44;;;;;;;;;;;20.90;99.90;;;;;;10275190;28;84417;-55
2022/06/13 16:23:55;;;;;;;;;;;20.70;99.90;;;;;;10276086;28;85088;-50
2022/06/13 16:28:58;;;;;;;;;;;20.50;99.90;;;;;;10273299;28;85908;-53
2022/06/13 16:34:00;;;;;;;;;;;20.40;99.90;;;;;;10288570;28;84842;-49
2022/06/13 16:39:02;;;;;;;;;;;20.10;99.90;;;;;;10278758;28;85390;-56
2022/06/13 16:44:04;;;;;;;;;;;20.00;99.90;;;;;;10272897;28;84882;-55
2022/06/13 16:49:04;;;;;;;;;;;19.90;99.90;;;;;;10282393;28;84952;-56
2022/06/13 16:54:10;;;;;;;;;;;20.10;99.90;;;;;;10283286;28;85190;-50
2022/06/13 16:59:21;;;;;;;;;;;20.10;99.90;;;;;;10295823;28;84240;-52
2022/06/13 17:04:36;;;;;;;;;;;20.30;99.90;;;;;;10295501;28;84160;-50
2022/06/13 17:09:55;;;;;;;;;;;19.90;99.90;;;;;;10276114;28;84261;-51
2022/06/13 17:14:56;;;;;;;;;;;19.90;99.90;;;;;;10275203;28;84914;-52
2022/06/13 17:19:58;;;;;;;;;;;19.90;99.90;;;;;;10269579;28;84361;-56
2022/06/13 17:25:00;;;;;;;;;;;20.00;99.90;;;;;;10288750;28;85343;-56
2022/06/13 17:35:23;;;;;;;;;;;19.90;99.90;;;;;;10295534;28;84928;-58
2022/06/13 17:40:24;;;;;;;;;;;19.80;99.90;;;;;;10278982;28;84881;-55
2022/06/13 17:45:25;;;;;;;;;;;19.60;1.00;;;;;;10270884;28;85024;-55
2022/06/13 17:50:26;;;;;;;;;;;19.30;1.00;;;;;;10270601;28;84139;-54
2022/06/13 17:55:29;;;;;;;;;;;19.20;1.00;;;;;;10277734;28;84249;-52
2022/06/13 18:00:30;;;;;;;;;;;19.30;1.00;;;;;;10282037;28;84035;-56
2022/06/13 18:05:32;;;;;;;;;;;19.30;1.00;;;;;;10294137;28;84909;-60
2022/06/13 18:10:33;;;;;;;;;;;19.30;1.00;;;;;;10305152;28;86365;-57
2022/06/13 18:15:36;;;;;;;;;;;19.10;1.00;;;;;;10310062;28;84095;-54
2022/06/13 18:20:37;;;;;;;;;;;19.00;1.00;;;;;;10287581;22;85303;-59
2022/06/13 18:25:39;;;;;;;;;;;19.00;1.00;;;;;;10242199;28;85124;-54
2022/06/13 18:30:40;;;;;;;;;;;18.90;1.00;;;;;;10187441;28;86094;-59
2022/06/13 18:35:41;;;;;;;;;;;18.90;1.00;;;;;;10183673;28;84198;-60
2022/06/13 18:40:42;;;;;;;;;;;18.70;99.90;;;;;;10190020;28;84574;-60
2022/06/13 18:45:44;;;;;;;;;;;18.60;99.90;;;;;;10236067;28;85269;-59
2022/06/13 18:50:44;;;;;;;;;;;18.50;1.00;;;;;;10231842;28;86523;-59
2022/06/13 18:55:45;;;;;;;;;;;18.50;1.00;;;;;;10235545;28;84319;-59
2022/06/13 19:00:46;;;;;;;;;;;18.40;1.00;;;;;;10220846;28;84047;-58
2022/06/13 19:05:48;;;;;;;;;;;18.30;99.90;;;;;;10218966;28;85079;-61
2022/06/13 19:10:49;;;;;;;;;;;18.20;1.00;;;;;;10232053;28;85009;-56
2022/06/13 19:15:50;;;;;;;;;;;18.20;1.00;;;;;;10229565;28;84077;-57
2022/06/13 19:20:50;;;;;;;;;;;18.00;99.90;;;;;;10229563;28;86203;-59
2022/06/13 19:25:52;;;;;;;;;;;17.80;99.90;;;;;;10235931;28;84956;-59
2022/06/13 19:30:53;;;;;;;;;;;17.70;1.00;;;;;;10233943;28;84101;-59
2022/06/13 19:35:54;;;;;;;;;;;17.70;1.00;;;;;;10226368;28;85050;-53
2022/06/13 19:40:56;;;;;;;;;;;17.60;99.90;;;;;;10235155;28;84962;-62
2022/06/13 19:45:58;;;;;;;;;;;17.60;1.00;;;;;;10236254;28;85273;-57
2022/06/13 19:51:01;;;;;;;;;;;17.40;99.90;;;;;;10232318;28;85127;-54
2022/06/13 19:56:05;;;;;;;;;;;17.30;1.00;;;;;;10228294;28;84156;-60
2022/06/13 20:01:07;;;;;;;;;;;17.20;1.00;;;;;;10254181;28;86239;-61
2022/06/13 20:11:27;;;;;;;;;;;17.00;99.90;;;;;;10232512;28;84234;-58
2022/06/13 20:16:28;;;;;;;;;;;17.00;1.00;;;;;;10225388;28;85042;-53
2022/06/13 20:21:31;;;;;;;;;;;16.90;1.00;;;;;;10235068;28;84058;-56
2022/06/13 20:26:32;;;;;;;;;;;16.70;99.90;;;;;;10232424;28;84747;-54
2022/06/13 20:31:33;;;;;;;;;;;16.70;1.00;;;;;;10222051;28;83965;-58
2022/06/13 20:36:34;;;;;;;;;;;16.60;1.00;;;;;;10208011;28;84282;-53
2022/06/13 20:41:37;;;;;;;;;;;16.50;1.00;;;;;;10210067;28;87266;-58
2022/06/13 20:46:39;;;;;;;;;;;16.50;99.90;;;;;;10210487;28;84109;-61
2022/06/13 20:51:39;;;;;;;;;;;16.40;99.90;;;;;;10209408;28;84254;-58
2022/06/13 20:56:41;;;;;;;;;;;16.30;1.00;;;;;;10219175;28;84270;-59
2022/06/13 21:01:42;;;;;;;;;;;16.20;1.00;;;;;;10211416;28;84045;-59
2022/06/13 21:06:43;;;;;;;;;;;16.10;99.90;;;;;;10212856;28;84716;-59
2022/06/13 21:11:43;;;;;;;;;;;16.10;99.90;;;;;;10213160;28;84539;-60
2022/06/13 21:16:44;;;;;;;;;;;16.00;1.00;;;;;;10242031;28;84422;-59
2022/06/13 21:21:47;;;;;;;;;;;16.00;1.00;;;;;;10226916;28;85111;-61
2022/06/13 21:26:47;;;;;;;;;;;15.90;1.00;;;;;;10209872;28;84261;-58
2022/06/13 21:31:48;;;;;;;;;;;15.80;1.00;;;;;;10208888;28;84284;-58
2022/06/13 21:36:49;;;;;;;;;;;15.70;25.90;;;;;;10201322;28;84762;-60
2022/06/13 21:41:49;;;;;;;;;;;15.70;1.00;;;;;;10204879;28;86280;-58
2022/06/13 21:46:50;;;;;;;;;;;15.70;1.00;;;;;;10207492;28;84003;-60
2022/06/13 21:51:51;;;;;;;;;;;15.60;1.00;;;;;;10188714;28;86834;-58
2022/06/13 21:56:52;;;;;;;;;;;15.60;1.00;;;;;;10218146;28;85146;-60
2022/06/13 22:01:52;;;;;;;;;;;15.50;99.90;;;;;;10210919;28;84893;-57
2022/06/13 22:06:53;;;;;;;;;;;15.40;99.90;;;;;;10216583;28;84293;-59
2022/06/13 22:11:53;;;;;;;;;;;15.30;99.90;;;;;;10210715;28;84780;-58
2022/06/13 22:16:54;;;;;;;;;;;15.30;1.00;;;;;;10211229;28;84386;-59
2022/06/13 22:21:54;;;;;;;;;;;15.20;1.00;;;;;;10210051;28;84482;-59
2022/06/13 22:26:55;;;;;;;;;;;15.10;1.00;;;;;;10210915;28;85084;-58
2022/06/13 22:31:55;;;;;;;;;;;15.10;1.00;;;;;;10210500;28;85033;-58
2022/06/13 22:36:56;;;;;;;;;;;15.00;1.00;;;;;;10210549;28;84222;-58
2022/06/13 22:41:56;;;;;;;;;;;14.90;1.00;;;;;;10208657;28;85939;-56
2022/06/13 22:52:18;;;;;;;;;;;14.80;1.00;;;;;;10210195;28;84423;-55
2022/06/13 22:57:19;;;;;;;;;;;14.80;1.00;;;;;;10209700;28;84939;-58
2022/06/13 23:02:21;;;;;;;;;;;14.70;1.00;;;;;;10218643;28;84997;-58
2022/06/13 23:07:22;;;;;;;;;;;14.70;86.00;;;;;;10194772;28;85253;-58
2022/06/13 23:12:23;;;;;;;;;;;14.60;99.90;;;;;;10179765;28;84974;-59
2022/06/13 23:17:24;;;;;;;;;;;14.50;99.90;;;;;;10206996;28;84790;-58
2022/06/13 23:22:25;;;;;;;;;;;14.40;99.90;;;;;;10207687;28;84944;-58
2022/06/13 23:27:26;;;;;;;;;;;14.40;99.90;;;;;;10209338;28;84824;-58
2022/06/13 23:32:29;;;;;;;;;;;14.40;99.90;;;;;;10208680;28;84704;-58
2022/06/13 23:37:29;;;;;;;;;;;14.30;99.90;;;;;;10209365;28;84926;-57
2022/06/13 23:42:30;;;;;;;;;;;14.30;99.90;;;;;;10209592;28;84938;-58
2022/06/13 23:47:30;;;;;;;;;;;14.20;1.00;;;;;;10209367;28;84935;-58
2022/06/13 23:52:31;;;;;;;;;;;14.20;1.00;;;;;;10208812;28;84199;-59
2022/06/13 23:57:31;;;;;;;;;;;14.10;1.00;;;;;;10209100;28;84361;-56
